sensor_id;sensor_type;location;lat;lon;timestamp;P1;durP1;ratioP1;P2;durP2;ratioP2
19747;SDS011;10032;51.386;12.516;2022-11-15T00:00:27;20.63;;;11.47;;
19747;SDS011;10032;51.386;12.516;2022-11-15T00:02:53;19.17;;;10.73;;
19747;SDS011;10032;51.386;12.516;2022-11-15T00:05:18;19.30;;;11.23;;
19747;SDS011;10032;51.386;12.516;2022-11-15T00:07:44;20.63;;;12.00;;
19747;SDS011;10032;51.386;12.516;2022-11-15T00:10:09;20.03;;;11.00;;
19747;SDS011;10032;51.386;12.516;2022-11-15T00:12:34;21.73;;;12.17;;
19747;SDS011;10032;51.386;12.516;2022-11-15T00:15:00;16.70;;;10.63;;
19747;SDS011;10032;51.386;12.516;2022-11-15T00:17:25;18.87;;;11.10;;
19747;SDS011;10032;51.386;12.516;2022-11-15T00:19:51;21.97;;;12.40;;
19747;SDS011;10032;51.386;12.516;2022-11-15T00:22:16;19.63;;;11.93;;
19747;SDS011;10032;51.386;12.516;2022-11-15T00:24:41;20.10;;;10.63;;
19747;SDS011;10032;51.386;12.516;2022-11-15T00:27:07;18.30;;;11.03;;
19747;SDS011;10032;51.386;12.516;2022-11-15T00:29:33;19.27;;;11.07;;
19747;SDS011;10032;51.386;12.516;2022-11-15T00:31:59;21.00;;;10.93;;
19747;SDS011;10032;51.386;12.516;2022-11-15T00:34:24;17.73;;;10.87;;
19747;SDS011;10032;51.386;12.516;2022-11-15T00:36:49;22.13;;;11.23;;
19747;SDS011;10032;51.386;12.516;2022-11-15T00:39:15;19.47;;;11.03;;
19747;SDS011;10032;51.386;12.516;2022-11-15T00:41:40;17.30;;;10.30;;
19747;SDS011;10032;51.386;12.516;2022-11-15T00:44:06;16.53;;;10.07;;
19747;SDS011;10032;51.386;12.516;2022-11-15T00:46:31;19.73;;;10.50;;
19747;SDS011;10032;51.386;12.516;2022-11-15T00:48:56;18.27;;;10.77;;
19747;SDS011;10032;51.386;12.516;2022-11-15T00:51:22;17.67;;;10.07;;
19747;SDS011;10032;51.386;12.516;2022-11-15T00:53:47;17.50;;;10.00;;
19747;SDS011;10032;51.386;12.516;2022-11-15T00:56:12;18.30;;;10.57;;
19747;SDS011;10032;51.386;12.516;2022-11-15T00:58:38;16.97;;;10.67;;
19747;SDS011;10032;51.386;12.516;2022-11-15T01:01:07;18.27;;;10.50;;
19747;SDS011;10032;51.386;12.516;2022-11-15T01:03:34;14.57;;;9.30;;
19747;SDS011;10032;51.386;12.516;2022-11-15T01:06:00;16.70;;;9.60;;
19747;SDS011;10032;51.386;12.516;2022-11-15T01:08:26;13.27;;;8.43;;
19747;SDS011;10032;51.386;12.516;2022-11-15T01:10:51;15.63;;;9.17;;
19747;SDS011;10032;51.386;12.516;2022-11-15T01:13:17;13.43;;;8.80;;
19747;SDS011;10032;51.386;12.516;2022-11-15T01:15:42;14.83;;;8.93;;
19747;SDS011;10032;51.386;12.516;2022-11-15T01:18:08;16.60;;;9.53;;
19747;SDS011;10032;51.386;12.516;2022-11-15T01:20:34;13.43;;;9.20;;
19747;SDS011;10032;51.386;12.516;2022-11-15T01:22:59;15.47;;;9.13;;
19747;SDS011;10032;51.386;12.516;2022-11-15T01:25:25;13.50;;;8.03;;
19747;SDS011;10032;51.386;12.516;2022-11-15T01:27:50;13.37;;;8.53;;
19747;SDS011;10032;51.386;12.516;2022-11-15T01:30:15;15.33;;;9.33;;
19747;SDS011;10032;51.386;12.516;2022-11-15T01:32:41;13.17;;;8.43;;
19747;SDS011;10032;51.386;12.516;2022-11-15T01:35:06;13.47;;;9.00;;
19747;SDS011;10032;51.386;12.516;2022-11-15T01:37:32;14.13;;;8.43;;
19747;SDS011;10032;51.386;12.516;2022-11-15T01:39:57;15.37;;;8.90;;
19747;SDS011;10032;51.386;12.516;2022-11-15T01:42:23;11.13;;;7.47;;
19747;SDS011;10032;51.386;12.516;2022-11-15T01:44:49;13.00;;;8.37;;
19747;SDS011;10032;51.386;12.516;2022-11-15T01:47:19;11.67;;;7.47;;
19747;SDS011;10032;51.386;12.516;2022-11-15T01:50:02;13.97;;;7.83;;
19747;SDS011;10032;51.386;12.516;2022-11-15T01:52:31;13.03;;;7.50;;
19747;SDS011;10032;51.386;12.516;2022-11-15T01:55:01;11.37;;;7.40;;
19747;SDS011;10032;51.386;12.516;2022-11-15T01:57:30;12.60;;;7.90;;
19747;SDS011;10032;51.386;12.516;2022-11-15T01:59:56;13.10;;;7.77;;
19747;SDS011;10032;51.386;12.516;2022-11-15T02:02:23;12.33;;;6.67;;
19747;SDS011;10032;51.386;12.516;2022-11-15T02:04:48;12.93;;;7.60;;
19747;SDS011;10032;51.386;12.516;2022-11-15T02:07:18;12.10;;;8.23;;
19747;SDS011;10032;51.386;12.516;2022-11-15T02:09:46;10.30;;;7.13;;
19747;SDS011;10032;51.386;12.516;2022-11-15T02:12:13;12.67;;;7.57;;
19747;SDS011;10032;51.386;12.516;2022-11-15T02:14:42;12.47;;;5.87;;
19747;SDS011;10032;51.386;12.516;2022-11-15T02:22:51;12.90;;;7.63;;
19747;SDS011;10032;51.386;12.516;2022-11-15T02:33:35;11.87;;;7.20;;
19747;SDS011;10032;51.386;12.516;2022-11-15T02:36:14;12.10;;;7.00;;
19747;SDS011;10032;51.386;12.516;2022-11-15T02:38:58;13.00;;;7.50;;
19747;SDS011;10032;51.386;12.516;2022-11-15T02:42:03;9.73;;;7.23;;
19747;SDS011;10032;51.386;12.516;2022-11-15T02:45:02;10.40;;;6.37;;
19747;SDS011;10032;51.386;12.516;2022-11-15T02:47:32;9.77;;;6.47;;
19747;SDS011;10032;51.386;12.516;2022-11-15T02:50:10;11.43;;;7.00;;
19747;SDS011;10032;51.386;12.516;2022-11-15T02:52:37;13.40;;;7.37;;
19747;SDS011;10032;51.386;12.516;2022-11-15T02:55:03;10.40;;;6.40;;
19747;SDS011;10032;51.386;12.516;2022-11-15T02:57:45;9.30;;;6.43;;
19747;SDS011;10032;51.386;12.516;2022-11-15T03:00:19;10.63;;;7.07;;
19747;SDS011;10032;51.386;12.516;2022-11-15T03:16:09;9.27;;;6.13;;
19747;SDS011;10032;51.386;12.516;2022-11-15T03:18:41;9.33;;;6.10;;
19747;SDS011;10032;51.386;12.516;2022-11-15T03:21:15;12.57;;;6.37;;
19747;SDS011;10032;51.386;12.516;2022-11-15T03:23:43;8.93;;;5.70;;
19747;SDS011;10032;51.386;12.516;2022-11-15T03:26:12;7.97;;;5.83;;
19747;SDS011;10032;51.386;12.516;2022-11-15T03:28:52;8.60;;;5.97;;
19747;SDS011;10032;51.386;12.516;2022-11-15T03:31:22;9.50;;;6.57;;
19747;SDS011;10032;51.386;12.516;2022-11-15T03:34:11;9.30;;;6.73;;
19747;SDS011;10032;51.386;12.516;2022-11-15T03:36:51;12.77;;;6.87;;
19747;SDS011;10032;51.386;12.516;2022-11-15T03:39:17;8.03;;;5.83;;
19747;SDS011;10032;51.386;12.516;2022-11-15T03:47:11;7.63;;;5.20;;
19747;SDS011;10032;51.386;12.516;2022-11-15T03:49:49;10.27;;;5.90;;
19747;SDS011;10032;51.386;12.516;2022-11-15T03:52:22;10.87;;;7.30;;
19747;SDS011;10032;51.386;12.516;2022-11-15T03:54:49;7.43;;;5.40;;
19747;SDS011;10032;51.386;12.516;2022-11-15T03:57:19;12.83;;;6.60;;
19747;SDS011;10032;51.386;12.516;2022-11-15T03:59:44;10.10;;;6.27;;
19747;SDS011;10032;51.386;12.516;2022-11-15T04:02:10;10.20;;;6.00;;
19747;SDS011;10032;51.386;12.516;2022-11-15T04:04:36;9.70;;;6.43;;
19747;SDS011;10032;51.386;12.516;2022-11-15T04:07:02;10.63;;;6.20;;
19747;SDS011;10032;51.386;12.516;2022-11-15T04:09:27;10.27;;;6.10;;
19747;SDS011;10032;51.386;12.516;2022-11-15T04:11:52;9.07;;;5.93;;
19747;SDS011;10032;51.386;12.516;2022-11-15T04:14:18;8.33;;;5.90;;
19747;SDS011;10032;51.386;12.516;2022-11-15T04:16:43;8.83;;;6.00;;
19747;SDS011;10032;51.386;12.516;2022-11-15T04:19:09;8.63;;;5.30;;
19747;SDS011;10032;51.386;12.516;2022-11-15T04:21:53;7.50;;;5.23;;
19747;SDS011;10032;51.386;12.516;2022-11-15T04:24:50;7.53;;;5.23;;
19747;SDS011;10032;51.386;12.516;2022-11-15T04:27:16;9.30;;;5.43;;
19747;SDS011;10032;51.386;12.516;2022-11-15T04:29:41;7.70;;;5.50;;
19747;SDS011;10032;51.386;12.516;2022-11-15T04:32:06;7.73;;;5.20;;
19747;SDS011;10032;51.386;12.516;2022-11-15T04:34:32;7.23;;;5.23;;
19747;SDS011;10032;51.386;12.516;2022-11-15T04:36:58;8.50;;;5.60;;
19747;SDS011;10032;51.386;12.516;2022-11-15T04:39:39;9.40;;;5.30;;
19747;SDS011;10032;51.386;12.516;2022-11-15T04:42:05;7.83;;;5.20;;
19747;SDS011;10032;51.386;12.516;2022-11-15T04:44:30;9.17;;;4.93;;
19747;SDS011;10032;51.386;12.516;2022-11-15T04:46:56;7.60;;;4.90;;
19747;SDS011;10032;51.386;12.516;2022-11-15T04:49:21;8.53;;;5.63;;
19747;SDS011;10032;51.386;12.516;2022-11-15T04:51:47;7.93;;;4.90;;
19747;SDS011;10032;51.386;12.516;2022-11-15T04:54:12;8.50;;;5.23;;
19747;SDS011;10032;51.386;12.516;2022-11-15T04:56:37;7.30;;;5.20;;
19747;SDS011;10032;51.386;12.516;2022-11-15T04:59:03;8.03;;;5.50;;
19747;SDS011;10032;51.386;12.516;2022-11-15T05:01:28;6.90;;;5.23;;
19747;SDS011;10032;51.386;12.516;2022-11-15T05:03:54;7.70;;;5.97;;
19747;SDS011;10032;51.386;12.516;2022-11-15T05:06:37;7.90;;;5.03;;
19747;SDS011;10032;51.386;12.516;2022-11-15T05:09:03;10.17;;;6.00;;
19747;SDS011;10032;51.386;12.516;2022-11-15T05:11:29;7.57;;;5.07;;
19747;SDS011;10032;51.386;12.516;2022-11-15T05:13:54;8.00;;;5.83;;
19747;SDS011;10032;51.386;12.516;2022-11-15T05:16:20;8.00;;;5.43;;
19747;SDS011;10032;51.386;12.516;2022-11-15T05:18:45;8.47;;;5.00;;
19747;SDS011;10032;51.386;12.516;2022-11-15T05:21:13;6.93;;;5.13;;
19747;SDS011;10032;51.386;12.516;2022-11-15T05:23:39;6.77;;;4.90;;
19747;SDS011;10032;51.386;12.516;2022-11-15T05:26:06;8.03;;;5.23;;
19747;SDS011;10032;51.386;12.516;2022-11-15T05:28:32;9.57;;;6.07;;
19747;SDS011;10032;51.386;12.516;2022-11-15T05:31:09;8.40;;;4.90;;
19747;SDS011;10032;51.386;12.516;2022-11-15T05:33:37;10.63;;;5.70;;
19747;SDS011;10032;51.386;12.516;2022-11-15T05:36:05;8.60;;;5.17;;
19747;SDS011;10032;51.386;12.516;2022-11-15T05:38:36;8.20;;;5.50;;
19747;SDS011;10032;51.386;12.516;2022-11-15T05:41:02;7.77;;;5.33;;
19747;SDS011;10032;51.386;12.516;2022-11-15T05:43:29;7.30;;;5.20;;
19747;SDS011;10032;51.386;12.516;2022-11-15T05:45:58;7.23;;;5.17;;
19747;SDS011;10032;51.386;12.516;2022-11-15T05:48:24;11.30;;;6.00;;
19747;SDS011;10032;51.386;12.516;2022-11-15T05:50:50;8.73;;;6.00;;
19747;SDS011;10032;51.386;12.516;2022-11-15T05:53:17;8.47;;;5.97;;
19747;SDS011;10032;51.386;12.516;2022-11-15T05:55:44;7.73;;;5.17;;
19747;SDS011;10032;51.386;12.516;2022-11-15T05:58:10;10.93;;;5.67;;
19747;SDS011;10032;51.386;12.516;2022-11-15T06:00:36;9.37;;;5.53;;
19747;SDS011;10032;51.386;12.516;2022-11-15T06:03:01;10.80;;;5.93;;
19747;SDS011;10032;51.386;12.516;2022-11-15T06:05:27;11.27;;;6.27;;
19747;SDS011;10032;51.386;12.516;2022-11-15T06:07:52;10.40;;;5.73;;
19747;SDS011;10032;51.386;12.516;2022-11-15T06:10:17;10.53;;;5.30;;
19747;SDS011;10032;51.386;12.516;2022-11-15T06:12:43;10.33;;;6.17;;
19747;SDS011;10032;51.386;12.516;2022-11-15T06:15:08;10.90;;;6.37;;
19747;SDS011;10032;51.386;12.516;2022-11-15T06:17:34;8.87;;;6.00;;
19747;SDS011;10032;51.386;12.516;2022-11-15T06:19:59;11.27;;;6.20;;
19747;SDS011;10032;51.386;12.516;2022-11-15T06:22:24;14.57;;;6.40;;
19747;SDS011;10032;51.386;12.516;2022-11-15T06:24:50;9.17;;;5.30;;
19747;SDS011;10032;51.386;12.516;2022-11-15T06:27:15;8.67;;;6.13;;
19747;SDS011;10032;51.386;12.516;2022-11-15T06:29:41;10.83;;;6.20;;
19747;SDS011;10032;51.386;12.516;2022-11-15T06:32:06;9.87;;;5.73;;
19747;SDS011;10032;51.386;12.516;2022-11-15T06:34:32;8.30;;;5.73;;
19747;SDS011;10032;51.386;12.516;2022-11-15T06:36:58;8.33;;;5.90;;
19747;SDS011;10032;51.386;12.516;2022-11-15T06:39:23;9.87;;;6.00;;
19747;SDS011;10032;51.386;12.516;2022-11-15T06:41:48;7.53;;;5.77;;
19747;SDS011;10032;51.386;12.516;2022-11-15T06:44:14;8.53;;;5.33;;
19747;SDS011;10032;51.386;12.516;2022-11-15T06:46:39;7.83;;;5.53;;
19747;SDS011;10032;51.386;12.516;2022-11-15T06:49:04;10.73;;;5.83;;
19747;SDS011;10032;51.386;12.516;2022-11-15T06:51:30;9.00;;;6.10;;
19747;SDS011;10032;51.386;12.516;2022-11-15T06:53:55;10.17;;;5.67;;
19747;SDS011;10032;51.386;12.516;2022-11-15T06:56:21;7.63;;;5.57;;
19747;SDS011;10032;51.386;12.516;2022-11-15T06:58:46;9.13;;;6.23;;
19747;SDS011;10032;51.386;12.516;2022-11-15T07:01:11;9.13;;;6.43;;
19747;SDS011;10032;51.386;12.516;2022-11-15T07:03:38;8.67;;;5.57;;
19747;SDS011;10032;51.386;12.516;2022-11-15T07:06:05;8.40;;;5.00;;
19747;SDS011;10032;51.386;12.516;2022-11-15T07:08:31;9.90;;;6.30;;
19747;SDS011;10032;51.386;12.516;2022-11-15T07:11:00;8.33;;;6.17;;
19747;SDS011;10032;51.386;12.516;2022-11-15T07:13:27;8.63;;;5.20;;
19747;SDS011;10032;51.386;12.516;2022-11-15T07:15:54;8.30;;;5.70;;
19747;SDS011;10032;51.386;12.516;2022-11-15T07:18:20;8.53;;;5.30;;
19747;SDS011;10032;51.386;12.516;2022-11-15T07:20:45;7.63;;;5.17;;
19747;SDS011;10032;51.386;12.516;2022-11-15T07:23:11;7.43;;;5.27;;
19747;SDS011;10032;51.386;12.516;2022-11-15T07:25:36;9.27;;;6.17;;
19747;SDS011;10032;51.386;12.516;2022-11-15T07:28:02;8.47;;;5.27;;
19747;SDS011;10032;51.386;12.516;2022-11-15T07:30:28;10.63;;;6.50;;
19747;SDS011;10032;51.386;12.516;2022-11-15T07:32:54;11.87;;;6.47;;
19747;SDS011;10032;51.386;12.516;2022-11-15T07:35:20;11.27;;;7.60;;
19747;SDS011;10032;51.386;12.516;2022-11-15T07:37:52;11.33;;;7.07;;
19747;SDS011;10032;51.386;12.516;2022-11-15T07:40:22;8.53;;;7.10;;
19747;SDS011;10032;51.386;12.516;2022-11-15T07:42:48;12.57;;;6.20;;
19747;SDS011;10032;51.386;12.516;2022-11-15T07:45:23;10.60;;;7.30;;
19747;SDS011;10032;51.386;12.516;2022-11-15T07:47:50;11.83;;;6.23;;
19747;SDS011;10032;51.386;12.516;2022-11-15T07:50:16;10.07;;;6.40;;
19747;SDS011;10032;51.386;12.516;2022-11-15T07:52:43;9.07;;;5.90;;
19747;SDS011;10032;51.386;12.516;2022-11-15T07:55:08;7.43;;;6.00;;
19747;SDS011;10032;51.386;12.516;2022-11-15T07:57:34;10.17;;;6.70;;
19747;SDS011;10032;51.386;12.516;2022-11-15T08:00:00;10.27;;;6.57;;
19747;SDS011;10032;51.386;12.516;2022-11-15T08:02:25;10.87;;;7.57;;
19747;SDS011;10032;51.386;12.516;2022-11-15T08:04:51;11.40;;;7.73;;
19747;SDS011;10032;51.386;12.516;2022-11-15T08:07:16;10.10;;;7.20;;
19747;SDS011;10032;51.386;12.516;2022-11-15T08:09:41;9.13;;;6.13;;
19747;SDS011;10032;51.386;12.516;2022-11-15T08:12:07;8.17;;;5.60;;
19747;SDS011;10032;51.386;12.516;2022-11-15T08:14:32;7.13;;;5.77;;
19747;SDS011;10032;51.386;12.516;2022-11-15T08:16:58;7.13;;;4.90;;
19747;SDS011;10032;51.386;12.516;2022-11-15T08:19:23;6.67;;;5.00;;
19747;SDS011;10032;51.386;12.516;2022-11-15T08:21:49;5.80;;;3.87;;
19747;SDS011;10032;51.386;12.516;2022-11-15T08:24:14;7.73;;;5.33;;
19747;SDS011;10032;51.386;12.516;2022-11-15T08:26:40;6.80;;;5.23;;
19747;SDS011;10032;51.386;12.516;2022-11-15T08:29:05;8.07;;;5.60;;
19747;SDS011;10032;51.386;12.516;2022-11-15T08:31:32;8.53;;;5.17;;
19747;SDS011;10032;51.386;12.516;2022-11-15T08:33:57;6.13;;;4.60;;
19747;SDS011;10032;51.386;12.516;2022-11-15T08:36:23;8.33;;;4.63;;
19747;SDS011;10032;51.386;12.516;2022-11-15T08:38:48;7.90;;;4.90;;
19747;SDS011;10032;51.386;12.516;2022-11-15T08:41:16;6.77;;;4.20;;
19747;SDS011;10032;51.386;12.516;2022-11-15T08:43:49;8.33;;;4.73;;
19747;SDS011;10032;51.386;12.516;2022-11-15T08:46:15;7.80;;;4.80;;
19747;SDS011;10032;51.386;12.516;2022-11-15T08:48:40;4.73;;;3.83;;
19747;SDS011;10032;51.386;12.516;2022-11-15T08:51:06;6.77;;;4.57;;
19747;SDS011;10032;51.386;12.516;2022-11-15T08:53:31;6.40;;;4.50;;
19747;SDS011;10032;51.386;12.516;2022-11-15T08:55:56;8.20;;;4.70;;
19747;SDS011;10032;51.386;12.516;2022-11-15T08:58:22;5.27;;;4.53;;
19747;SDS011;10032;51.386;12.516;2022-11-15T09:00:47;8.50;;;4.73;;
19747;SDS011;10032;51.386;12.516;2022-11-15T09:03:13;5.73;;;3.50;;
19747;SDS011;10032;51.386;12.516;2022-11-15T09:05:38;6.83;;;3.97;;
19747;SDS011;10032;51.386;12.516;2022-11-15T09:08:04;5.97;;;4.03;;
19747;SDS011;10032;51.386;12.516;2022-11-15T09:10:30;6.27;;;4.07;;
19747;SDS011;10032;51.386;12.516;2022-11-15T09:12:56;6.43;;;4.53;;
19747;SDS011;10032;51.386;12.516;2022-11-15T09:15:22;7.17;;;4.47;;
19747;SDS011;10032;51.386;12.516;2022-11-15T09:17:48;8.17;;;5.00;;
19747;SDS011;10032;51.386;12.516;2022-11-15T09:20:13;6.73;;;4.63;;
19747;SDS011;10032;51.386;12.516;2022-11-15T09:22:39;6.10;;;4.10;;
19747;SDS011;10032;51.386;12.516;2022-11-15T09:25:05;6.07;;;3.70;;
19747;SDS011;10032;51.386;12.516;2022-11-15T09:27:31;5.33;;;3.80;;
19747;SDS011;10032;51.386;12.516;2022-11-15T09:29:56;5.27;;;3.80;;
19747;SDS011;10032;51.386;12.516;2022-11-15T09:32:22;6.33;;;4.27;;
19747;SDS011;10032;51.386;12.516;2022-11-15T09:34:48;6.83;;;4.40;;
19747;SDS011;10032;51.386;12.516;2022-11-15T09:37:14;7.33;;;4.83;;
19747;SDS011;10032;51.386;12.516;2022-11-15T09:39:40;5.73;;;4.67;;
19747;SDS011;10032;51.386;12.516;2022-11-15T09:53:12;7.20;;;3.67;;
19747;SDS011;10032;51.386;12.516;2022-11-15T09:56:01;5.67;;;3.90;;
19747;SDS011;10032;51.386;12.516;2022-11-15T09:58:50;4.67;;;3.77;;
19747;SDS011;10032;51.386;12.516;2022-11-15T10:04:42;4.80;;;3.60;;
19747;SDS011;10032;51.386;12.516;2022-11-15T10:10:14;5.07;;;3.30;;
19747;SDS011;10032;51.386;12.516;2022-11-15T10:12:49;6.33;;;4.00;;
19747;SDS011;10032;51.386;12.516;2022-11-15T10:15:18;5.30;;;3.57;;
19747;SDS011;10032;51.386;12.516;2022-11-15T10:20:29;6.17;;;3.63;;
19747;SDS011;10032;51.386;12.516;2022-11-15T10:22:56;3.97;;;3.13;;
19747;SDS011;10032;51.386;12.516;2022-11-15T10:27:59;4.63;;;3.17;;
19747;SDS011;10032;51.386;12.516;2022-11-15T10:30:36;4.17;;;3.27;;
19747;SDS011;10032;51.386;12.516;2022-11-15T10:33:22;3.87;;;2.87;;
19747;SDS011;10032;51.386;12.516;2022-11-15T10:35:55;3.10;;;2.80;;
19747;SDS011;10032;51.386;12.516;2022-11-15T10:46:33;3.23;;;2.93;;
19747;SDS011;10032;51.386;12.516;2022-11-15T10:49:13;4.47;;;3.10;;
19747;SDS011;10032;51.386;12.516;2022-11-15T10:51:45;4.40;;;3.13;;
19747;SDS011;10032;51.386;12.516;2022-11-15T10:54:16;3.30;;;2.93;;
19747;SDS011;10032;51.386;12.516;2022-11-15T10:56:55;5.37;;;3.17;;
19747;SDS011;10032;51.386;12.516;2022-11-15T10:59:24;4.13;;;3.23;;
19747;SDS011;10032;51.386;12.516;2022-11-15T11:01:52;5.13;;;2.93;;
19747;SDS011;10032;51.386;12.516;2022-11-15T11:04:18;4.20;;;3.47;;
19747;SDS011;10032;51.386;12.516;2022-11-15T11:06:57;3.33;;;2.70;;
19747;SDS011;10032;51.386;12.516;2022-11-15T11:11:58;3.37;;;2.40;;
19747;SDS011;10032;51.386;12.516;2022-11-15T11:14:25;4.47;;;3.30;;
19747;SDS011;10032;51.386;12.516;2022-11-15T11:31:06;4.30;;;2.77;;
19747;SDS011;10032;51.386;12.516;2022-11-15T11:33:44;3.30;;;2.40;;
19747;SDS011;10032;51.386;12.516;2022-11-15T11:44:27;11.10;;;2.67;;
19747;SDS011;10032;51.386;12.516;2022-11-15T11:49:49;4.07;;;2.90;;
19747;SDS011;10032;51.386;12.516;2022-11-15T11:52:25;3.45;;;3.10;;
19747;SDS011;10032;51.386;12.516;2022-11-15T11:55:15;4.50;;;3.10;;
19747;SDS011;10032;51.386;12.516;2022-11-15T12:00:32;3.17;;;2.67;;
19747;SDS011;10032;51.386;12.516;2022-11-15T12:03:11;3.53;;;2.63;;
19747;SDS011;10032;51.386;12.516;2022-11-15T12:05:46;3.22;;;2.42;;
19747;SDS011;10032;51.386;12.516;2022-11-15T12:08:32;4.07;;;3.07;;
19747;SDS011;10032;51.386;12.516;2022-11-15T12:11:10;3.28;;;2.40;;
19747;SDS011;10032;51.386;12.516;2022-11-15T12:13:41;3.20;;;2.58;;
19747;SDS011;10032;51.386;12.516;2022-11-15T12:16:16;4.90;;;2.70;;
19747;SDS011;10032;51.386;12.516;2022-11-15T12:18:50;3.30;;;2.83;;
19747;SDS011;10032;51.386;12.516;2022-11-15T12:23:53;4.88;;;2.97;;
19747;SDS011;10032;51.386;12.516;2022-11-15T12:26:30;3.28;;;2.65;;
19747;SDS011;10032;51.386;12.516;2022-11-15T12:29:03;4.40;;;2.90;;
19747;SDS011;10032;51.386;12.516;2022-11-15T12:34:04;3.72;;;2.58;;
19747;SDS011;10032;51.386;12.516;2022-11-15T12:36:41;3.45;;;2.72;;
19747;SDS011;10032;51.386;12.516;2022-11-15T12:39:12;4.43;;;2.90;;
19747;SDS011;10032;51.386;12.516;2022-11-15T12:44:10;3.25;;;2.30;;
19747;SDS011;10032;51.386;12.516;2022-11-15T13:02:26;3.00;;;2.53;;
19747;SDS011;10032;51.386;12.516;2022-11-15T13:05:19;2.88;;;2.38;;
19747;SDS011;10032;51.386;12.516;2022-11-15T13:17:43;3.55;;;2.90;;
19747;SDS011;10032;51.386;12.516;2022-11-15T13:31:02;3.40;;;2.40;;
19747;SDS011;10032;51.386;12.516;2022-11-15T13:33:32;3.67;;;2.95;;
19747;SDS011;10032;51.386;12.516;2022-11-15T13:36:01;4.47;;;2.45;;
19747;SDS011;10032;51.386;12.516;2022-11-15T13:38:57;3.47;;;2.60;;
19747;SDS011;10032;51.386;12.516;2022-11-15T13:41:25;3.70;;;2.65;;
19747;SDS011;10032;51.386;12.516;2022-11-15T13:43:54;2.88;;;2.47;;
19747;SDS011;10032;51.386;12.516;2022-11-15T13:48:59;4.60;;;2.80;;
19747;SDS011;10032;51.386;12.516;2022-11-15T13:51:30;3.50;;;2.85;;
19747;SDS011;10032;51.386;12.516;2022-11-15T13:54:08;2.90;;;2.60;;
19747;SDS011;10032;51.386;12.516;2022-11-15T13:56:44;2.80;;;2.40;;
19747;SDS011;10032;51.386;12.516;2022-11-15T13:59:22;5.10;;;2.87;;
19747;SDS011;10032;51.386;12.516;2022-11-15T14:01:53;3.83;;;2.87;;
19747;SDS011;10032;51.386;12.516;2022-11-15T14:04:22;6.07;;;4.07;;
19747;SDS011;10032;51.386;12.516;2022-11-15T14:06:52;3.90;;;3.00;;
19747;SDS011;10032;51.386;12.516;2022-11-15T14:09:31;3.15;;;2.42;;
19747;SDS011;10032;51.386;12.516;2022-11-15T14:11:58;3.38;;;2.60;;
19747;SDS011;10032;51.386;12.516;2022-11-15T14:14:25;4.77;;;2.97;;
19747;SDS011;10032;51.386;12.516;2022-11-15T14:16:53;3.55;;;2.92;;
19747;SDS011;10032;51.386;12.516;2022-11-15T14:22:28;3.50;;;2.58;;
19747;SDS011;10032;51.386;12.516;2022-11-15T14:24:46;3.30;;;2.53;;
19747;SDS011;10032;51.386;12.516;2022-11-15T14:27:28;3.30;;;3.00;;
19747;SDS011;10032;51.386;12.516;2022-11-15T14:29:54;4.10;;;2.87;;
19747;SDS011;10032;51.386;12.516;2022-11-15T14:34:53;4.38;;;2.90;;
19747;SDS011;10032;51.386;12.516;2022-11-15T14:37:21;4.03;;;2.70;;
19747;SDS011;10032;51.386;12.516;2022-11-15T14:39:49;4.17;;;2.53;;
19747;SDS011;10032;51.386;12.516;2022-11-15T14:42:16;3.10;;;2.30;;
19747;SDS011;10032;51.386;12.516;2022-11-15T14:44:42;4.67;;;3.10;;
19747;SDS011;10032;51.386;12.516;2022-11-15T14:47:08;3.55;;;2.90;;
19747;SDS011;10032;51.386;12.516;2022-11-15T14:49:33;4.53;;;3.30;;
19747;SDS011;10032;51.386;12.516;2022-11-15T14:51:58;5.63;;;3.37;;
19747;SDS011;10032;51.386;12.516;2022-11-15T14:54:24;5.23;;;3.60;;
19747;SDS011;10032;51.386;12.516;2022-11-15T14:56:49;6.17;;;3.27;;
19747;SDS011;10032;51.386;12.516;2022-11-15T14:59:15;4.53;;;3.60;;
19747;SDS011;10032;51.386;12.516;2022-11-15T15:01:40;6.10;;;3.00;;
19747;SDS011;10032;51.386;12.516;2022-11-15T15:04:05;5.67;;;3.17;;
19747;SDS011;10032;51.386;12.516;2022-11-15T15:06:31;5.50;;;3.03;;
19747;SDS011;10032;51.386;12.516;2022-11-15T15:08:56;5.80;;;3.40;;
19747;SDS011;10032;51.386;12.516;2022-11-15T15:11:29;4.17;;;3.13;;
19747;SDS011;10032;51.386;12.516;2022-11-15T15:13:56;5.17;;;3.47;;
19747;SDS011;10032;51.386;12.516;2022-11-15T15:16:23;9.23;;;3.87;;
19747;SDS011;10032;51.386;12.516;2022-11-15T15:18:49;11.07;;;4.40;;
19747;SDS011;10032;51.386;12.516;2022-11-15T15:21:22;7.37;;;3.87;;
19747;SDS011;10032;51.386;12.516;2022-11-15T15:23:50;5.17;;;3.53;;
19747;SDS011;10032;51.386;12.516;2022-11-15T15:26:16;4.70;;;3.03;;
19747;SDS011;10032;51.386;12.516;2022-11-15T15:28:41;6.33;;;3.93;;
19747;SDS011;10032;51.386;12.516;2022-11-15T15:31:07;5.33;;;3.67;;
19747;SDS011;10032;51.386;12.516;2022-11-15T15:33:33;3.30;;;2.80;;
19747;SDS011;10032;51.386;12.516;2022-11-15T15:35:59;4.37;;;3.30;;
19747;SDS011;10032;51.386;12.516;2022-11-15T15:38:24;5.43;;;3.33;;
19747;SDS011;10032;51.386;12.516;2022-11-15T15:40:50;8.53;;;4.90;;
19747;SDS011;10032;51.386;12.516;2022-11-15T15:43:15;7.20;;;4.53;;
19747;SDS011;10032;51.386;12.516;2022-11-15T15:45:41;8.50;;;6.03;;
19747;SDS011;10032;51.386;12.516;2022-11-15T15:48:16;7.17;;;5.03;;
19747;SDS011;10032;51.386;12.516;2022-11-15T15:50:42;6.73;;;4.93;;
19747;SDS011;10032;51.386;12.516;2022-11-15T15:53:08;7.37;;;5.03;;
19747;SDS011;10032;51.386;12.516;2022-11-15T15:55:35;8.37;;;5.47;;
19747;SDS011;10032;51.386;12.516;2022-11-15T15:58:01;8.50;;;5.77;;
19747;SDS011;10032;51.386;12.516;2022-11-15T16:00:27;9.93;;;5.97;;
19747;SDS011;10032;51.386;12.516;2022-11-15T16:02:53;10.77;;;6.33;;
19747;SDS011;10032;51.386;12.516;2022-11-15T16:05:19;8.90;;;6.03;;
19747;SDS011;10032;51.386;12.516;2022-11-15T16:07:44;10.00;;;6.17;;
19747;SDS011;10032;51.386;12.516;2022-11-15T16:12:53;11.60;;;7.27;;
19747;SDS011;10032;51.386;12.516;2022-11-15T16:15:21;11.10;;;7.50;;
19747;SDS011;10032;51.386;12.516;2022-11-15T16:17:48;11.63;;;7.30;;
19747;SDS011;10032;51.386;12.516;2022-11-15T16:22:56;12.97;;;7.50;;
19747;SDS011;10032;51.386;12.516;2022-11-15T16:25:23;10.80;;;7.60;;
19747;SDS011;10032;51.386;12.516;2022-11-15T16:27:49;11.27;;;7.57;;
19747;SDS011;10032;51.386;12.516;2022-11-15T16:30:15;12.10;;;7.50;;
19747;SDS011;10032;51.386;12.516;2022-11-15T16:32:41;14.63;;;8.20;;
19747;SDS011;10032;51.386;12.516;2022-11-15T16:35:09;12.63;;;8.33;;
19747;SDS011;10032;51.386;12.516;2022-11-15T16:37:39;13.13;;;9.23;;
19747;SDS011;10032;51.386;12.516;2022-11-15T16:40:27;15.60;;;9.03;;
19747;SDS011;10032;51.386;12.516;2022-11-15T16:42:56;18.10;;;9.20;;
19747;SDS011;10032;51.386;12.516;2022-11-15T16:45:22;16.50;;;8.40;;
19747;SDS011;10032;51.386;12.516;2022-11-15T16:47:48;14.27;;;8.60;;
19747;SDS011;10032;51.386;12.516;2022-11-15T16:50:24;15.53;;;9.67;;
19747;SDS011;10032;51.386;12.516;2022-11-15T16:52:52;12.20;;;8.57;;
19747;SDS011;10032;51.386;12.516;2022-11-15T16:55:20;15.23;;;9.33;;
19747;SDS011;10032;51.386;12.516;2022-11-15T16:57:47;14.73;;;8.87;;
19747;SDS011;10032;51.386;12.516;2022-11-15T17:00:13;12.67;;;9.23;;
19747;SDS011;10032;51.386;12.516;2022-11-15T17:02:41;13.40;;;8.33;;
19747;SDS011;10032;51.386;12.516;2022-11-15T17:05:08;14.53;;;9.30;;
19747;SDS011;10032;51.386;12.516;2022-11-15T17:07:34;15.23;;;9.20;;